sensor_id;sensor_type;location;lat;lon;timestamp;temperature;humidity
23633;DHT22;11993;48.748;9.166;2023-02-13T00:00:45;4.50;81.30
23633;DHT22;11993;48.748;9.166;2023-02-13T00:03:11;4.60;81.00
23633;DHT22;11993;48.748;9.166;2023-02-13T00:05:37;4.50;80.80
23633;DHT22;11993;48.748;9.166;2023-02-13T00:08:02;4.40;81.10
23633;DHT22;11993;48.748;9.166;2023-02-13T00:10:28;4.50;81.10
23633;DHT22;11993;48.748;9.166;2023-02-13T00:12:54;4.30;81.20
23633;DHT22;11993;48.748;9.166;2023-02-13T00:15:20;4.40;81.20
23633;DHT22;11993;48.748;9.166;2023-02-13T00:17:45;4.40;81.10
23633;DHT22;11993;48.748;9.166;2023-02-13T00:20:12;4.60;80.80
23633;DHT22;11993;48.748;9.166;2023-02-13T00:22:38;4.50;80.70
23633;DHT22;11993;48.748;9.166;2023-02-13T00:25:05;4.50;80.60
23633;DHT22;11993;48.748;9.166;2023-02-13T00:27:31;4.40;80.60
23633;DHT22;11993;48.748;9.166;2023-02-13T00:29:56;4.40;80.60
23633;DHT22;11993;48.748;9.166;2023-02-13T00:32:22;4.40;80.70
23633;DHT22;11993;48.748;9.166;2023-02-13T00:34:47;4.40;80.50
23633;DHT22;11993;48.748;9.166;2023-02-13T00:37:13;4.40;80.80
23633;DHT22;11993;48.748;9.166;2023-02-13T00:39:38;4.30;80.80
23633;DHT22;11993;48.748;9.166;2023-02-13T00:42:05;4.20;81.10
23633;DHT22;11993;48.748;9.166;2023-02-13T00:44:31;4.20;81.60
23633;DHT22;11993;48.748;9.166;2023-02-13T00:46:56;4.20;81.40
23633;DHT22;11993;48.748;9.166;2023-02-13T00:49:22;4.20;81.00
23633;DHT22;11993;48.748;9.166;2023-02-13T00:51:47;4.20;81.30
23633;DHT22;11993;48.748;9.166;2023-02-13T00:54:13;4.10;81.20
23633;DHT22;11993;48.748;9.166;2023-02-13T00:56:39;4.10;81.20
23633;DHT22;11993;48.748;9.166;2023-02-13T00:59:04;4.10;81.60
23633;DHT22;11993;48.748;9.166;2023-02-13T01:01:30;4.10;81.40
23633;DHT22;11993;48.748;9.166;2023-02-13T01:03:55;4.10;81.30
23633;DHT22;11993;48.748;9.166;2023-02-13T01:06:21;4.10;81.20
23633;DHT22;11993;48.748;9.166;2023-02-13T01:08:46;4.00;81.40
23633;DHT22;11993;48.748;9.166;2023-02-13T01:11:14;4.00;81.40
23633;DHT22;11993;48.748;9.166;2023-02-13T01:13:39;3.80;81.90
23633;DHT22;11993;48.748;9.166;2023-02-13T01:16:05;3.90;81.80
23633;DHT22;11993;48.748;9.166;2023-02-13T01:18:31;3.90;81.80
23633;DHT22;11993;48.748;9.166;2023-02-13T01:21:01;4.00;81.50
23633;DHT22;11993;48.748;9.166;2023-02-13T01:23:31;4.10;81.40
23633;DHT22;11993;48.748;9.166;2023-02-13T01:25:57;4.00;81.40
23633;DHT22;11993;48.748;9.166;2023-02-13T01:28:24;4.00;81.50
23633;DHT22;11993;48.748;9.166;2023-02-13T01:30:53;4.10;81.40
23633;DHT22;11993;48.748;9.166;2023-02-13T01:33:20;3.90;81.50
23633;DHT22;11993;48.748;9.166;2023-02-13T01:35:46;4.00;81.50
23633;DHT22;11993;48.748;9.166;2023-02-13T01:38:11;3.90;81.70
23633;DHT22;11993;48.748;9.166;2023-02-13T01:40:46;3.80;82.00
23633;DHT22;11993;48.748;9.166;2023-02-13T01:43:12;3.60;82.80
23633;DHT22;11993;48.748;9.166;2023-02-13T01:45:38;3.60;82.50
23633;DHT22;11993;48.748;9.166;2023-02-13T01:48:18;3.60;82.50
23633;DHT22;11993;48.748;9.166;2023-02-13T01:51:10;3.50;83.20
23633;DHT22;11993;48.748;9.166;2023-02-13T01:54:01;3.60;83.10
23633;DHT22;11993;48.748;9.166;2023-02-13T01:56:32;3.40;83.70
23633;DHT22;11993;48.748;9.166;2023-02-13T01:59:04;3.50;83.40
23633;DHT22;11993;48.748;9.166;2023-02-13T02:01:31;3.50;83.50
23633;DHT22;11993;48.748;9.166;2023-02-13T02:04:03;3.50;83.60
23633;DHT22;11993;48.748;9.166;2023-02-13T02:06:34;3.60;83.50
23633;DHT22;11993;48.748;9.166;2023-02-13T02:09:07;3.60;83.50
23633;DHT22;11993;48.748;9.166;2023-02-13T02:14:34;3.90;82.80
23633;DHT22;11993;48.748;9.166;2023-02-13T02:16:59;3.80;82.60
23633;DHT22;11993;48.748;9.166;2023-02-13T02:19:37;3.80;82.50
23633;DHT22;11993;48.748;9.166;2023-02-13T02:22:56;3.80;82.40
23633;DHT22;11993;48.748;9.166;2023-02-13T02:25:42;3.80;82.50
23633;DHT22;11993;48.748;9.166;2023-02-13T02:28:48;3.90;82.20
23633;DHT22;11993;48.748;9.166;2023-02-13T02:31:38;3.90;82.10
23633;DHT22;11993;48.748;9.166;2023-02-13T02:45:40;3.70;81.60
23633;DHT22;11993;48.748;9.166;2023-02-13T02:51:24;3.60;81.70
23633;DHT22;11993;48.748;9.166;2023-02-13T02:56:43;3.60;81.90
23633;DHT22;11993;48.748;9.166;2023-02-13T02:59:12;3.60;82.00
23633;DHT22;11993;48.748;9.166;2023-02-13T03:01:57;3.60;81.90
23633;DHT22;11993;48.748;9.166;2023-02-13T03:04:45;3.60;82.00
23633;DHT22;11993;48.748;9.166;2023-02-13T03:07:31;3.50;81.90
23633;DHT22;11993;48.748;9.166;2023-02-13T03:09:59;3.60;82.00
23633;DHT22;11993;48.748;9.166;2023-02-13T03:12:56;3.60;82.00
23633;DHT22;11993;48.748;9.166;2023-02-13T03:15:44;3.50;82.10
23633;DHT22;11993;48.748;9.166;2023-02-13T03:18:50;3.50;82.80
23633;DHT22;11993;48.748;9.166;2023-02-13T03:21:55;3.50;82.70
23633;DHT22;11993;48.748;9.166;2023-02-13T03:24:59;3.40;82.80
23633;DHT22;11993;48.748;9.166;2023-02-13T03:30:54;3.40;82.80
23633;DHT22;11993;48.748;9.166;2023-02-13T03:42:34;3.50;82.80
23633;DHT22;11993;48.748;9.166;2023-02-13T03:45:05;3.40;83.10
23633;DHT22;11993;48.748;9.166;2023-02-13T03:47:55;3.30;83.30
23633;DHT22;11993;48.748;9.166;2023-02-13T03:50:23;3.30;83.80
23633;DHT22;11993;48.748;9.166;2023-02-13T03:53:00;3.40;83.80
23633;DHT22;11993;48.748;9.166;2023-02-13T03:55:31;3.40;83.80
23633;DHT22;11993;48.748;9.166;2023-02-13T03:58:22;3.30;83.80
23633;DHT22;11993;48.748;9.166;2023-02-13T04:01:08;3.20;83.80
23633;DHT22;11993;48.748;9.166;2023-02-13T04:06:20;3.00;84.70
23633;DHT22;11993;48.748;9.166;2023-02-13T04:08:47;3.00;84.60
23633;DHT22;11993;48.748;9.166;2023-02-13T04:13:51;3.10;84.80
23633;DHT22;11993;48.748;9.166;2023-02-13T04:16:34;3.00;84.70
23633;DHT22;11993;48.748;9.166;2023-02-13T04:19:04;3.10;84.80
23633;DHT22;11993;48.748;9.166;2023-02-13T04:21:38;3.10;84.90
23633;DHT22;11993;48.748;9.166;2023-02-13T04:24:08;3.20;84.80
23633;DHT22;11993;48.748;9.166;2023-02-13T04:26:42;3.30;84.50
23633;DHT22;11993;48.748;9.166;2023-02-13T04:29:08;3.20;84.30
23633;DHT22;11993;48.748;9.166;2023-02-13T04:31:34;3.20;84.60
23633;DHT22;11993;48.748;9.166;2023-02-13T04:33:59;3.10;84.80
23633;DHT22;11993;48.748;9.166;2023-02-13T04:36:25;3.20;84.80
23633;DHT22;11993;48.748;9.166;2023-02-13T04:38:50;3.30;84.60
23633;DHT22;11993;48.748;9.166;2023-02-13T04:41:16;3.30;84.40
23633;DHT22;11993;48.748;9.166;2023-02-13T04:43:42;3.20;84.40
23633;DHT22;11993;48.748;9.166;2023-02-13T04:46:08;3.20;84.70
23633;DHT22;11993;48.748;9.166;2023-02-13T04:48:33;3.00;85.00
23633;DHT22;11993;48.748;9.166;2023-02-13T04:50:59;3.20;84.90
23633;DHT22;11993;48.748;9.166;2023-02-13T04:53:24;3.20;84.80
23633;DHT22;11993;48.748;9.166;2023-02-13T04:55:50;3.20;84.90
23633;DHT22;11993;48.748;9.166;2023-02-13T04:58:16;3.30;84.70
23633;DHT22;11993;48.748;9.166;2023-02-13T05:00:42;3.20;84.70
23633;DHT22;11993;48.748;9.166;2023-02-13T05:03:09;3.10;84.70
23633;DHT22;11993;48.748;9.166;2023-02-13T05:05:36;3.10;85.00
23633;DHT22;11993;48.748;9.166;2023-02-13T05:08:02;3.20;84.80
23633;DHT22;11993;48.748;9.166;2023-02-13T05:10:28;3.20;84.70
23633;DHT22;11993;48.748;9.166;2023-02-13T05:12:53;3.30;84.50
23633;DHT22;11993;48.748;9.166;2023-02-13T05:15:19;3.20;84.30
23633;DHT22;11993;48.748;9.166;2023-02-13T05:17:46;3.30;84.40
23633;DHT22;11993;48.748;9.166;2023-02-13T05:20:12;3.20;84.30
23633;DHT22;11993;48.748;9.166;2023-02-13T05:22:49;3.10;84.60
23633;DHT22;11993;48.748;9.166;2023-02-13T05:25:35;3.00;84.80
23633;DHT22;11993;48.748;9.166;2023-02-13T05:28:01;2.90;85.10
23633;DHT22;11993;48.748;9.166;2023-02-13T05:30:27;2.90;85.10
23633;DHT22;11993;48.748;9.166;2023-02-13T05:32:53;2.90;85.10
23633;DHT22;11993;48.748;9.166;2023-02-13T05:35:20;2.90;85.00
23633;DHT22;11993;48.748;9.166;2023-02-13T05:37:46;2.80;85.30
23633;DHT22;11993;48.748;9.166;2023-02-13T05:40:12;3.00;85.00
23633;DHT22;11993;48.748;9.166;2023-02-13T05:42:39;2.90;84.80
23633;DHT22;11993;48.748;9.166;2023-02-13T05:45:05;3.00;84.90
23633;DHT22;11993;48.748;9.166;2023-02-13T05:47:31;2.90;84.90
23633;DHT22;11993;48.748;9.166;2023-02-13T05:49:56;2.90;85.00
23633;DHT22;11993;48.748;9.166;2023-02-13T05:52:22;3.00;84.80
23633;DHT22;11993;48.748;9.166;2023-02-13T05:54:48;3.00;84.80
23633;DHT22;11993;48.748;9.166;2023-02-13T05:57:13;2.90;84.80
23633;DHT22;11993;48.748;9.166;2023-02-13T05:59:39;2.80;84.90
23633;DHT22;11993;48.748;9.166;2023-02-13T06:02:04;2.90;84.90
23633;DHT22;11993;48.748;9.166;2023-02-13T06:04:30;2.70;85.00
23633;DHT22;11993;48.748;9.166;2023-02-13T06:06:56;2.70;85.10
23633;DHT22;11993;48.748;9.166;2023-02-13T06:09:21;2.70;85.20
23633;DHT22;11993;48.748;9.166;2023-02-13T06:11:47;2.60;85.40
23633;DHT22;11993;48.748;9.166;2023-02-13T06:14:12;2.50;85.70
23633;DHT22;11993;48.748;9.166;2023-02-13T06:16:39;2.60;85.70
23633;DHT22;11993;48.748;9.166;2023-02-13T06:19:06;2.60;85.70
23633;DHT22;11993;48.748;9.166;2023-02-13T06:21:32;2.60;85.60
23633;DHT22;11993;48.748;9.166;2023-02-13T06:24:02;2.50;85.90
23633;DHT22;11993;48.748;9.166;2023-02-13T06:26:28;2.40;86.10
23633;DHT22;11993;48.748;9.166;2023-02-13T06:28:54;2.40;86.20
23633;DHT22;11993;48.748;9.166;2023-02-13T06:31:19;2.50;85.70
23633;DHT22;11993;48.748;9.166;2023-02-13T06:33:45;2.40;85.80
23633;DHT22;11993;48.748;9.166;2023-02-13T06:36:10;2.30;86.10
23633;DHT22;11993;48.748;9.166;2023-02-13T06:38:36;2.20;86.20
23633;DHT22;11993;48.748;9.166;2023-02-13T06:41:01;1.90;86.90
23633;DHT22;11993;48.748;9.166;2023-02-13T06:43:27;1.90;87.10
23633;DHT22;11993;48.748;9.166;2023-02-13T06:45:53;2.00;87.00
23633;DHT22;11993;48.748;9.166;2023-02-13T06:48:19;2.10;86.40
23633;DHT22;11993;48.748;9.166;2023-02-13T06:50:44;1.90;87.00
23633;DHT22;11993;48.748;9.166;2023-02-13T06:53:10;2.00;86.90
23633;DHT22;11993;48.748;9.166;2023-02-13T06:55:36;2.00;86.50
23633;DHT22;11993;48.748;9.166;2023-02-13T06:58:04;2.10;86.10
23633;DHT22;11993;48.748;9.166;2023-02-13T07:00:29;2.20;85.80
23633;DHT22;11993;48.748;9.166;2023-02-13T07:03:11;2.00;85.90
23633;DHT22;11993;48.748;9.166;2023-02-13T07:05:40;2.00;86.00
23633;DHT22;11993;48.748;9.166;2023-02-13T07:08:06;2.10;86.00
23633;DHT22;11993;48.748;9.166;2023-02-13T07:10:32;2.20;86.20
23633;DHT22;11993;48.748;9.166;2023-02-13T07:12:57;2.10;86.10
23633;DHT22;11993;48.748;9.166;2023-02-13T07:15:23;2.30;85.60
23633;DHT22;11993;48.748;9.166;2023-02-13T07:17:55;2.40;85.80
23633;DHT22;11993;48.748;9.166;2023-02-13T07:20:21;2.40;85.50
23633;DHT22;11993;48.748;9.166;2023-02-13T07:22:47;2.30;85.60
23633;DHT22;11993;48.748;9.166;2023-02-13T07:25:12;2.40;85.10
23633;DHT22;11993;48.748;9.166;2023-02-13T07:27:38;2.40;85.40
23633;DHT22;11993;48.748;9.166;2023-02-13T07:30:04;2.70;85.10
23633;DHT22;11993;48.748;9.166;2023-02-13T07:32:30;2.70;84.50
23633;DHT22;11993;48.748;9.166;2023-02-13T07:34:56;2.60;84.50
23633;DHT22;11993;48.748;9.166;2023-02-13T07:37:22;2.60;84.60
23633;DHT22;11993;48.748;9.166;2023-02-13T07:39:47;3.00;83.70
23633;DHT22;11993;48.748;9.166;2023-02-13T07:42:13;3.10;82.30
23633;DHT22;11993;48.748;9.166;2023-02-13T07:44:39;3.20;82.30
23633;DHT22;11993;48.748;9.166;2023-02-13T07:47:05;3.20;81.90
23633;DHT22;11993;48.748;9.166;2023-02-13T07:49:30;3.40;81.90
23633;DHT22;11993;48.748;9.166;2023-02-13T07:51:56;3.70;80.80
23633;DHT22;11993;48.748;9.166;2023-02-13T07:54:25;3.40;81.00
23633;DHT22;11993;48.748;9.166;2023-02-13T07:56:52;3.70;80.30
23633;DHT22;11993;48.748;9.166;2023-02-13T07:59:17;3.90;80.00
23633;DHT22;11993;48.748;9.166;2023-02-13T08:01:43;3.70;80.50
23633;DHT22;11993;48.748;9.166;2023-02-13T08:04:08;4.10;79.20
23633;DHT22;11993;48.748;9.166;2023-02-13T08:06:34;4.30;78.60
23633;DHT22;11993;48.748;9.166;2023-02-13T08:08:59;4.40;78.00
23633;DHT22;11993;48.748;9.166;2023-02-13T08:11:44;4.20;78.40
23633;DHT22;11993;48.748;9.166;2023-02-13T08:14:22;4.30;77.60
23633;DHT22;11993;48.748;9.166;2023-02-13T08:16:48;4.10;78.80
23633;DHT22;11993;48.748;9.166;2023-02-13T08:19:14;4.20;78.40
23633;DHT22;11993;48.748;9.166;2023-02-13T08:21:40;4.10;77.30
23633;DHT22;11993;48.748;9.166;2023-02-13T08:24:06;4.60;76.90
23633;DHT22;11993;48.748;9.166;2023-02-13T08:26:32;4.60;76.50
23633;DHT22;11993;48.748;9.166;2023-02-13T08:28:58;4.40;76.50
23633;DHT22;11993;48.748;9.166;2023-02-13T08:31:24;4.60;77.40
23633;DHT22;11993;48.748;9.166;2023-02-13T08:33:49;5.00;75.90
23633;DHT22;11993;48.748;9.166;2023-02-13T08:36:15;5.20;75.20
23633;DHT22;11993;48.748;9.166;2023-02-13T08:38:40;5.30;74.40
23633;DHT22;11993;48.748;9.166;2023-02-13T08:41:06;5.30;73.70
23633;DHT22;11993;48.748;9.166;2023-02-13T08:43:32;5.20;74.20
23633;DHT22;11993;48.748;9.166;2023-02-13T08:45:58;5.60;73.30
23633;DHT22;11993;48.748;9.166;2023-02-13T08:48:27;5.40;72.60
23633;DHT22;11993;48.748;9.166;2023-02-13T08:50:53;5.70;72.00
23633;DHT22;11993;48.748;9.166;2023-02-13T08:53:19;5.70;72.10
23633;DHT22;11993;48.748;9.166;2023-02-13T08:55:55;5.60;72.10
23633;DHT22;11993;48.748;9.166;2023-02-13T08:58:21;5.20;72.90
23633;DHT22;11993;48.748;9.166;2023-02-13T09:00:47;4.90;74.90
23633;DHT22;11993;48.748;9.166;2023-02-13T09:03:12;5.10;74.20
23633;DHT22;11993;48.748;9.166;2023-02-13T09:05:38;5.40;72.70
23633;DHT22;11993;48.748;9.166;2023-02-13T09:08:04;5.70;72.70
23633;DHT22;11993;48.748;9.166;2023-02-13T09:10:30;6.20;71.90
23633;DHT22;11993;48.748;9.166;2023-02-13T09:12:56;6.60;70.10
23633;DHT22;11993;48.748;9.166;2023-02-13T09:15:22;6.70;69.00
23633;DHT22;11993;48.748;9.166;2023-02-13T09:17:47;6.70;69.20
23633;DHT22;11993;48.748;9.166;2023-02-13T09:20:13;6.50;69.10
23633;DHT22;11993;48.748;9.166;2023-02-13T09:22:39;7.00;68.90
23633;DHT22;11993;48.748;9.166;2023-02-13T09:25:06;7.00;67.60
23633;DHT22;11993;48.748;9.166;2023-02-13T09:27:32;7.00;67.20
23633;DHT22;11993;48.748;9.166;2023-02-13T09:29:59;6.90;67.80
23633;DHT22;11993;48.748;9.166;2023-02-13T09:32:25;7.60;67.50
23633;DHT22;11993;48.748;9.166;2023-02-13T09:34:50;7.50;65.50
23633;DHT22;11993;48.748;9.166;2023-02-13T09:37:16;7.80;64.70
23633;DHT22;11993;48.748;9.166;2023-02-13T09:39:41;7.60;64.30
23633;DHT22;11993;48.748;9.166;2023-02-13T09:42:28;8.10;63.90
23633;DHT22;11993;48.748;9.166;2023-02-13T09:45:02;8.20;63.20
23633;DHT22;11993;48.748;9.166;2023-02-13T09:47:35;8.20;63.00
23633;DHT22;11993;48.748;9.166;2023-02-13T09:50:21;8.40;62.20
23633;DHT22;11993;48.748;9.166;2023-02-13T09:52:48;8.30;62.60
23633;DHT22;11993;48.748;9.166;2023-02-13T09:55:20;8.40;62.60
23633;DHT22;11993;48.748;9.166;2023-02-13T10:00:41;8.40;62.60
23633;DHT22;11993;48.748;9.166;2023-02-13T10:03:13;8.60;62.30
23633;DHT22;11993;48.748;9.166;2023-02-13T10:16:28;10.80;56.40
23633;DHT22;11993;48.748;9.166;2023-02-13T10:21:31;11.20;55.60
23633;DHT22;11993;48.748;9.166;2023-02-13T10:24:09;11.30;54.90
23633;DHT22;11993;48.748;9.166;2023-02-13T10:26:38;11.60;54.30
23633;DHT22;11993;48.748;9.166;2023-02-13T10:29:19;11.30;53.40
23633;DHT22;11993;48.748;9.166;2023-02-13T10:32:08;11.20;54.40
23633;DHT22;11993;48.748;9.166;2023-02-13T10:34:40;11.60;53.60
23633;DHT22;11993;48.748;9.166;2023-02-13T10:37:12;12.10;52.20
23633;DHT22;11993;48.748;9.166;2023-02-13T10:39:40;11.80;51.20
23633;DHT22;11993;48.748;9.166;2023-02-13T10:44:49;12.10;50.90
23633;DHT22;11993;48.748;9.166;2023-02-13T10:58:20;11.90;50.60
23633;DHT22;11993;48.748;9.166;2023-02-13T11:03:23;11.80;50.90
23633;DHT22;11993;48.748;9.166;2023-02-13T11:05:50;11.90;51.00
23633;DHT22;11993;48.748;9.166;2023-02-13T11:08:19;11.70;51.70
23633;DHT22;11993;48.748;9.166;2023-02-13T11:10:46;12.20;50.20
23633;DHT22;11993;48.748;9.166;2023-02-13T11:13:30;11.80;51.40
23633;DHT22;11993;48.748;9.166;2023-02-13T11:16:06;11.60;52.20
23633;DHT22;11993;48.748;9.166;2023-02-13T11:18:35;13.10;49.00
23633;DHT22;11993;48.748;9.166;2023-02-13T11:21:12;12.80;48.10
23633;DHT22;11993;48.748;9.166;2023-02-13T11:26:20;13.30;46.80
23633;DHT22;11993;48.748;9.166;2023-02-13T11:28:55;13.90;45.60
23633;DHT22;11993;48.748;9.166;2023-02-13T11:31:25;13.60;45.30
23633;DHT22;11993;48.748;9.166;2023-02-13T11:33:51;12.90;47.50
23633;DHT22;11993;48.748;9.166;2023-02-13T11:36:26;13.30;46.80
23633;DHT22;11993;48.748;9.166;2023-02-13T11:39:04;13.80;45.30
23633;DHT22;11993;48.748;9.166;2023-02-13T11:41:38;13.90;45.60
23633;DHT22;11993;48.748;9.166;2023-02-13T11:44:04;13.60;44.80
23633;DHT22;11993;48.748;9.166;2023-02-13T11:46:46;13.30;46.60
23633;DHT22;11993;48.748;9.166;2023-02-13T11:49:27;13.60;45.50
23633;DHT22;11993;48.748;9.166;2023-02-13T11:51:55;13.70;45.30
23633;DHT22;11993;48.748;9.166;2023-02-13T11:54:22;14.10;43.60
23633;DHT22;11993;48.748;9.166;2023-02-13T11:56:54;15.00;42.90
23633;DHT22;11993;48.748;9.166;2023-02-13T11:59:24;14.00;45.10
23633;DHT22;11993;48.748;9.166;2023-02-13T12:04:36;14.00;44.80
23633;DHT22;11993;48.748;9.166;2023-02-13T12:07:27;13.10;45.20
23633;DHT22;11993;48.748;9.166;2023-02-13T12:12:54;14.70;43.50
23633;DHT22;11993;48.748;9.166;2023-02-13T12:15:33;14.10;44.80
23633;DHT22;11993;48.748;9.166;2023-02-13T12:29:22;14.10;45.00
23633;DHT22;11993;48.748;9.166;2023-02-13T12:37:36;14.80;42.90
23633;DHT22;11993;48.748;9.166;2023-02-13T12:46:05;15.10;42.70
23633;DHT22;11993;48.748;9.166;2023-02-13T12:48:52;15.80;41.90
23633;DHT22;11993;48.748;9.166;2023-02-13T12:51:35;16.00;41.10
23633;DHT22;11993;48.748;9.166;2023-02-13T12:57:18;16.00;40.70
23633;DHT22;11993;48.748;9.166;2023-02-13T13:02:55;15.50;42.30
23633;DHT22;11993;48.748;9.166;2023-02-13T13:16:52;15.20;43.00
23633;DHT22;11993;48.748;9.166;2023-02-13T13:26:58;16.70;39.60
23633;DHT22;11993;48.748;9.166;2023-02-13T13:29:31;16.40;40.00
23633;DHT22;11993;48.748;9.166;2023-02-13T13:32:07;16.60;39.60
23633;DHT22;11993;48.748;9.166;2023-02-13T13:34:38;16.70;39.90
23633;DHT22;11993;48.748;9.166;2023-02-13T13:37:18;16.60;40.00
23633;DHT22;11993;48.748;9.166;2023-02-13T13:42:32;16.60;39.40
23633;DHT22;11993;48.748;9.166;2023-02-13T13:47:47;16.90;39.30
23633;DHT22;11993;48.748;9.166;2023-02-13T13:50:25;17.10;39.00
23633;DHT22;11993;48.748;9.166;2023-02-13T13:53:06;16.40;40.50
23633;DHT22;11993;48.748;9.166;2023-02-13T14:01:18;17.90;37.80
23633;DHT22;11993;48.748;9.166;2023-02-13T14:03:49;17.60;38.30
23633;DHT22;11993;48.748;9.166;2023-02-13T14:06:21;17.30;39.40
23633;DHT22;11993;48.748;9.166;2023-02-13T14:11:33;16.80;39.70
23633;DHT22;11993;48.748;9.166;2023-02-13T14:14:00;17.10;40.10
23633;DHT22;11993;48.748;9.166;2023-02-13T14:16:43;17.30;38.90
23633;DHT22;11993;48.748;9.166;2023-02-13T14:19:36;17.40;39.10
23633;DHT22;11993;48.748;9.166;2023-02-13T14:24:51;17.60;38.20
23633;DHT22;11993;48.748;9.166;2023-02-13T14:27:21;16.30;41.10
23633;DHT22;11993;48.748;9.166;2023-02-13T14:29:48;16.30;41.40
23633;DHT22;11993;48.748;9.166;2023-02-13T14:32:30;16.80;40.40
23633;DHT22;11993;48.748;9.166;2023-02-13T14:35:06;17.40;38.80
23633;DHT22;11993;48.748;9.166;2023-02-13T14:37:54;18.00;38.20
23633;DHT22;11993;48.748;9.166;2023-02-13T14:45:45;16.80;39.70
23633;DHT22;11993;48.748;9.166;2023-02-13T14:48:13;17.30;38.50
23633;DHT22;11993;48.748;9.166;2023-02-13T14:50:45;17.30;39.40
23633;DHT22;11993;48.748;9.166;2023-02-13T14:53:26;17.40;39.20
23633;DHT22;11993;48.748;9.166;2023-02-13T14:56:01;17.40;39.00
23633;DHT22;11993;48.748;9.166;2023-02-13T14:58:31;17.20;38.30
23633;DHT22;11993;48.748;9.166;2023-02-13T15:03:41;16.20;41.00
23633;DHT22;11993;48.748;9.166;2023-02-13T15:06:27;15.90;42.00
23633;DHT22;11993;48.748;9.166;2023-02-13T15:08:55;16.90;40.10
23633;DHT22;11993;48.748;9.166;2023-02-13T15:11:36;16.00;41.60
23633;DHT22;11993;48.748;9.166;2023-02-13T15:14:20;15.10;43.20
23633;DHT22;11993;48.748;9.166;2023-02-13T15:16:53;15.10;43.90
23633;DHT22;11993;48.748;9.166;2023-02-13T15:19:21;15.90;42.50
23633;DHT22;11993;48.748;9.166;2023-02-13T15:21:55;15.60;42.60
23633;DHT22;11993;48.748;9.166;2023-02-13T15:24:22;15.10;43.80
23633;DHT22;11993;48.748;9.166;2023-02-13T15:26:59;14.80;44.60
23633;DHT22;11993;48.748;9.166;2023-02-13T15:29:25;15.10;44.30
23633;DHT22;11993;48.748;9.166;2023-02-13T15:31:50;15.30;43.50
23633;DHT22;11993;48.748;9.166;2023-02-13T15:34:29;14.90;43.90
23633;DHT22;11993;48.748;9.166;2023-02-13T15:36:56;14.50;45.20
23633;DHT22;11993;48.748;9.166;2023-02-13T15:39:24;14.30;45.70
23633;DHT22;11993;48.748;9.166;2023-02-13T15:41:53;13.40;47.00
23633;DHT22;11993;48.748;9.166;2023-02-13T15:44:26;14.00;46.00
23633;DHT22;11993;48.748;9.166;2023-02-13T15:46:54;13.80;46.10
23633;DHT22;11993;48.748;9.166;2023-02-13T15:49:23;13.60;45.40
23633;DHT22;11993;48.748;9.166;2023-02-13T15:52:00;13.60;46.70
23633;DHT22;11993;48.748;9.166;2023-02-13T15:54:31;13.70;45.40
23633;DHT22;11993;48.748;9.166;2023-02-13T15:56:59;13.20;46.80
23633;DHT22;11993;48.748;9.166;2023-02-13T15:59:33;13.20;47.00
23633;DHT22;11993;48.748;9.166;2023-02-13T16:01:59;12.60;48.40
23633;DHT22;11993;48.748;9.166;2023-02-13T16:04:27;12.60;48.40
23633;DHT22;11993;48.748;9.166;2023-02-13T16:06:54;12.30;49.50
23633;DHT22;11993;48.748;9.166;2023-02-13T16:11:47;11.70;50.60
23633;DHT22;11993;48.748;9.166;2023-02-13T16:14:17;11.10;52.80
23633;DHT22;11993;48.748;9.166;2023-02-13T16:17:02;10.10;55.30
23633;DHT22;11993;48.748;9.166;2023-02-13T16:24:48;8.70;60.10
23633;DHT22;11993;48.748;9.166;2023-02-13T16:27:15;8.40;61.40
23633;DHT22;11993;48.748;9.166;2023-02-13T16:29:49;8.60;61.20
23633;DHT22;11993;48.748;9.166;2023-02-13T16:32:25;8.30;62.10
23633;DHT22;11993;48.748;9.166;2023-02-13T16:34:51;8.20;62.50
23633;DHT22;11993;48.748;9.166;2023-02-13T16:37:32;7.80;63.80
23633;DHT22;11993;48.748;9.166;2023-02-13T16:48:40;7.70;64.10
23633;DHT22;11993;48.748;9.166;2023-02-13T16:51:06;7.40;64.90
23633;DHT22;11993;48.748;9.166;2023-02-13T16:53:33;7.30;64.90
23633;DHT22;11993;48.748;9.166;2023-02-13T16:56:03;7.10;66.00
23633;DHT22;11993;48.748;9.166;2023-02-13T16:58:30;6.90;66.80
23633;DHT22;11993;48.748;9.166;2023-02-13T17:00:56;6.70;67.20
23633;DHT22;11993;48.748;9.166;2023-02-13T17:03:22;6.50;68.10
23633;DHT22;11993;48.748;9.166;2023-02-13T17:05:47;6.60;67.70
23633;DHT22;11993;48.748;9.166;2023-02-13T17:08:13;6.40;68.40
23633;DHT22;11993;48.748;9.166;2023-02-13T17:10:39;6.40;67.90
23633;DHT22;11993;48.748;9.166;2023-02-13T17:15:36;5.70;70.60
23633;DHT22;11993;48.748;9.166;2023-02-13T17:18:01;5.80;70.70
23633;DHT22;11993;48.748;9.166;2023-02-13T17:20:29;5.80;70.00
23633;DHT22;11993;48.748;9.166;2023-02-13T17:22:57;5.50;71.40
23633;DHT22;11993;48.748;9.166;2023-02-13T17:25:34;5.60;71.30
23633;DHT22;11993;48.748;9.166;2023-02-13T17:28:13;5.30;71.90
23633;DHT22;11993;48.748;9.166;2023-02-13T17:30:40;5.10;72.90
23633;DHT22;11993;48.748;9.166;2023-02-13T17:33:11;4.90;73.60
23633;DHT22;11993;48.748;9.166;2023-02-13T17:35:38;4.90;74.10
23633;DHT22;11993;48.748;9.166;2023-02-13T17:38:04;4.70;74.40
23633;DHT22;11993;48.748;9.166;2023-02-13T17:40:30;4.60;75.00
23633;DHT22;11993;48.748;9.166;2023-02-13T17:42:57;4.20;76.20
23633;DHT22;11993;48.748;9.166;2023-02-13T17:45:26;4.20;76.70
23633;DHT22;11993;48.748;9.166;2023-02-13T17:47:52;4.40;76.10
23633;DHT22;11993;48.748;9.166;2023-02-13T17:50:19;4.10;76.60
23633;DHT22;11993;48.748;9.166;2023-02-13T17:52:45;4.30;76.40
23633;DHT22;11993;48.748;9.166;2023-02-13T17:55:21;4.00;76.70
23633;DHT22;11993;48.748;9.166;2023-02-13T17:57:49;4.00;76.70
23633;DHT22;11993;48.748;9.166;2023-02-13T18:00:16;4.00;76.90
23633;DHT22;11993;48.748;9.166;2023-02-13T18:02:42;3.70;77.40
23633;DHT22;11993;48.748;9.166;2023-02-13T18:05:08;3.50;78.70
23633;DHT22;11993;48.748;9.166;2023-02-13T18:07:35;3.50;79.20
23633;DHT22;11993;48.748;9.166;2023-02-13T18:10:00;3.40;79.30
23633;DHT22;11993;48.748;9.166;2023-02-13T18:12:27;3.60;78.80
23633;DHT22;11993;48.748;9.166;2023-02-13T18:14:52;3.60;78.60
23633;DHT22;11993;48.748;9.166;2023-02-13T18:17:19;3.50;78.60
23633;DHT22;11993;48.748;9.166;2023-02-13T18:19:45;3.40;79.20
23633;DHT22;11993;48.748;9.166;2023-02-13T18:22:11;3.40;79.40
23633;DHT22;11993;48.748;9.166;2023-02-13T18:24:40;3.20;79.90
23633;DHT22;11993;48.748;9.166;2023-02-13T18:27:07;3.40;79.80
23633;DHT22;11993;48.748;9.166;2023-02-13T18:29:33;3.30;79.80
23633;DHT22;11993;48.748;9.166;2023-02-13T18:32:04;3.20;79.70
23633;DHT22;11993;48.748;9.166;2023-02-13T18:34:33;3.20;80.10
23633;DHT22;11993;48.748;9.166;2023-02-13T18:36:59;3.20;80.10
23633;DHT22;11993;48.748;9.166;2023-02-13T18:39:24;3.10;80.30
23633;DHT22;11993;48.748;9.166;2023-02-13T18:41:50;3.20;80.40
23633;DHT22;11993;48.748;9.166;2023-02-13T18:44:16;2.90;80.70
23633;DHT22;11993;48.748;9.166;2023-02-13T18:46:42;3.00;80.90
23633;DHT22;11993;48.748;9.166;2023-02-13T18:49:09;3.00;80.80
23633;DHT22;11993;48.748;9.166;2023-02-13T18:51:34;3.00;80.70